sensor_id;sensor_type;location;lat;lon;timestamp;pressure;altitude;pressure_sealevel;temperature;humidity
54439;BME280;40347;53.848;27.498;2023-04-21T00:01:19;1016.3;;;10.3;37.9
54439;BME280;40347;53.848;27.498;2023-04-21T00:06:17;1016.3;;;10.2;38
54439;BME280;40347;53.848;27.498;2023-04-21T00:11:11;1016.3;;;10.2;37.9
54439;BME280;40347;53.848;27.498;2023-04-21T00:16:03;1016.3;;;10.2;38
54439;BME280;40347;53.848;27.498;2023-04-21T00:21:07;1016.2;;;10.2;38
54439;BME280;40347;53.848;27.498;2023-04-21T00:26:03;1016.2;;;10;38.1
54439;BME280;40347;53.848;27.498;2023-04-21T00:31:15;1016.2;;;10;38.2
54439;BME280;40347;53.848;27.498;2023-04-21T00:36:03;1016.2;;;10.1;38.2
54439;BME280;40347;53.848;27.498;2023-04-21T00:41:07;1016.1;;;10;38.6
54439;BME280;40347;53.848;27.498;2023-04-21T00:46:15;1016.1;;;9.8;38.8
54439;BME280;40347;53.848;27.498;2023-04-21T00:51:15;1016.1;;;9.9;38.6
54439;BME280;40347;53.848;27.498;2023-04-21T00:56:27;1016.1;;;9.8;38.8
54439;BME280;40347;53.848;27.498;2023-04-21T01:01:03;1016;;;9.9;38.7
54439;BME280;40347;53.848;27.498;2023-04-21T01:06:03;1016;;;10;38.5
54439;BME280;40347;53.848;27.498;2023-04-21T01:11:15;1016;;;10;38.5
54439;BME280;40347;53.848;27.498;2023-04-21T01:16:03;1016;;;9.9;38.8
54439;BME280;40347;53.848;27.498;2023-04-21T01:21:11;1016;;;9.9;38.8
54439;BME280;40347;53.848;27.498;2023-04-21T01:26:03;1016;;;9.8;39
54439;BME280;40347;53.848;27.498;2023-04-21T01:31:03;1015.9;;;9.8;39.2
54439;BME280;40347;53.848;27.498;2023-04-21T01:36:25;1015.9;;;9.7;39.1
54439;BME280;40347;53.848;27.498;2023-04-21T01:41:03;1015.9;;;9.8;39
54439;BME280;40347;53.848;27.498;2023-04-21T01:46:03;1015.9;;;9.7;39.3
54439;BME280;40347;53.848;27.498;2023-04-21T01:51:03;1015.9;;;9.6;39.3
54439;BME280;40347;53.848;27.498;2023-04-21T01:56:21;1015.9;;;9.6;39.3
54439;BME280;40347;53.848;27.498;2023-04-21T02:01:11;1015.9;;;9.5;39.5
54439;BME280;40347;53.848;27.498;2023-04-21T02:06:03;1015.8;;;9.5;39.5
54439;BME280;40347;53.848;27.498;2023-04-21T02:11:15;1015.8;;;9.5;39.6
54439;BME280;40347;53.848;27.498;2023-04-21T02:16:03;1015.8;;;9.3;39.8
54439;BME280;40347;53.848;27.498;2023-04-21T02:21:15;1015.8;;;9.3;39.8
54439;BME280;40347;53.848;27.498;2023-04-21T02:26:03;1015.7;;;9.3;40
54439;BME280;40347;53.848;27.498;2023-04-21T02:31:11;1015.8;;;9.2;40.4
54439;BME280;40347;53.848;27.498;2023-04-21T02:36:03;1015.8;;;9.1;40.7
54439;BME280;40347;53.848;27.498;2023-04-21T02:41:03;1015.8;;;9;41
54439;BME280;40347;53.848;27.498;2023-04-21T02:46:23;1015.8;;;8.8;41.6
54439;BME280;40347;53.848;27.498;2023-04-21T02:51:15;1015.8;;;8.7;41.7
54439;BME280;40347;53.848;27.498;2023-04-21T02:56:03;1015.8;;;8.7;42
54439;BME280;40347;53.848;27.498;2023-04-21T03:01:15;1015.8;;;8.5;42.1
54439;BME280;40347;53.848;27.498;2023-04-21T03:06:29;1015.8;;;8.5;42.1
54439;BME280;40347;53.848;27.498;2023-04-21T03:11:03;1015.8;;;8.4;42.4
54439;BME280;40347;53.848;27.498;2023-04-21T03:16:03;1015.8;;;8.4;42.4
54439;BME280;40347;53.848;27.498;2023-04-21T03:21:29;1015.8;;;8.3;42.6
54439;BME280;40347;53.848;27.498;2023-04-21T03:26:05;1015.8;;;8.3;43
54439;BME280;40347;53.848;27.498;2023-04-21T03:31:15;1015.9;;;8.4;42.5
54439;BME280;40347;53.848;27.498;2023-04-21T03:36:03;1015.9;;;8.5;42.4
54439;BME280;40347;53.848;27.498;2023-04-21T03:41:03;1015.9;;;8.6;42.2
54439;BME280;40347;53.848;27.498;2023-04-21T03:46:03;1015.9;;;8.7;42.1
54439;BME280;40347;53.848;27.498;2023-04-21T03:51:03;1015.9;;;8.8;42.1
54439;BME280;40347;53.848;27.498;2023-04-21T03:56:07;1015.9;;;8.9;42.3
54439;BME280;40347;53.848;27.498;2023-04-21T04:01:03;1015.9;;;9;42
54439;BME280;40347;53.848;27.498;2023-04-21T04:06:03;1015.9;;;9;41.8
54439;BME280;40347;53.848;27.498;2023-04-21T04:11:11;1015.9;;;9.1;41.7
54439;BME280;40347;53.848;27.498;2023-04-21T04:16:15;1015.9;;;9.1;41.7
54439;BME280;40347;53.848;27.498;2023-04-21T04:21:04;1015.9;;;9.4;41.4
54439;BME280;40347;53.848;27.498;2023-04-21T04:26:03;1016;;;9.8;40.9
54439;BME280;40347;53.848;27.498;2023-04-21T04:31:03;1016;;;10.1;39.8
54439;BME280;40347;53.848;27.498;2023-04-21T04:36:15;1015.9;;;10.2;39.6
54439;BME280;40347;53.848;27.498;2023-04-21T04:41:33;1015.9;;;10.4;39.4
54439;BME280;40347;53.848;27.498;2023-04-21T04:46:15;1016;;;10.6;39.4
54439;BME280;40347;53.848;27.498;2023-04-21T04:51:21;1016;;;10.8;39.4
54439;BME280;40347;53.848;27.498;2023-04-21T04:56:21;1015.9;;;11.1;38.8
54439;BME280;40347;53.848;27.498;2023-04-21T05:01:23;1015.9;;;11.7;38.4
54439;BME280;40347;53.848;27.498;2023-04-21T05:06:03;1015.9;;;12.5;36.6
54439;BME280;40347;53.848;27.498;2023-04-21T05:11:03;1015.9;;;12.6;36.7
54439;BME280;40347;53.848;27.498;2023-04-21T05:16:03;1015.9;;;12.4;36.2
54439;BME280;40347;53.848;27.498;2023-04-21T05:21:31;1015.9;;;12.5;36.5
54439;BME280;40347;53.848;27.498;2023-04-21T05:26:03;1015.9;;;12.6;36.2
54439;BME280;40347;53.848;27.498;2023-04-21T05:31:15;1015.8;;;13;35.7
54439;BME280;40347;53.848;27.498;2023-04-21T05:36:15;1015.9;;;13.1;35.1
54439;BME280;40347;53.848;27.498;2023-04-21T05:41:19;1015.9;;;12.8;35.1
54439;BME280;40347;53.848;27.498;2023-04-21T05:46:15;1015.9;;;12.5;35.6
54439;BME280;40347;53.848;27.498;2023-04-21T05:51:17;1015.8;;;12.5;36.3
54439;BME280;40347;53.848;27.498;2023-04-21T05:56:03;1015.8;;;12.7;35.8
54439;BME280;40347;53.848;27.498;2023-04-21T06:01:03;1015.8;;;12.9;35.8
54439;BME280;40347;53.848;27.498;2023-04-21T06:06:03;1015.8;;;13;35.4
54439;BME280;40347;53.848;27.498;2023-04-21T06:11:03;1015.8;;;12.6;35.1
54439;BME280;40347;53.848;27.498;2023-04-21T06:16:03;1015.8;;;12.6;35.5
54439;BME280;40347;53.848;27.498;2023-04-21T06:21:11;1015.8;;;12.6;35.4
54439;BME280;40347;53.848;27.498;2023-04-21T06:26:15;1015.8;;;12.8;35.6
54439;BME280;40347;53.848;27.498;2023-04-21T06:31:15;1015.8;;;13.2;35.2
54439;BME280;40347;53.848;27.498;2023-04-21T06:36:03;1015.7;;;13.3;34.2
54439;BME280;40347;53.848;27.498;2023-04-21T06:41:03;1015.7;;;13.5;34
54439;BME280;40347;53.848;27.498;2023-04-21T06:46:27;1015.8;;;13.6;33.2
54439;BME280;40347;53.848;27.498;2023-04-21T06:51:03;1015.8;;;13.7;33.2
54439;BME280;40347;53.848;27.498;2023-04-21T06:56:03;1015.7;;;14;32.9
54439;BME280;40347;53.848;27.498;2023-04-21T07:01:03;1015.8;;;13.9;32.6
54439;BME280;40347;53.848;27.498;2023-04-21T07:06:27;1015.8;;;14.2;32.9
54439;BME280;40347;53.848;27.498;2023-04-21T07:11:09;1015.8;;;14.4;32.4
54439;BME280;40347;53.848;27.498;2023-04-21T07:16:07;1015.8;;;14.6;32.1
54439;BME280;40347;53.848;27.498;2023-04-21T07:21:15;1015.7;;;14.8;32
54439;BME280;40347;53.848;27.498;2023-04-21T07:26:15;1015.6;;;14.9;31.5
54439;BME280;40347;53.848;27.498;2023-04-21T07:31:15;1015.6;;;15;31
54439;BME280;40347;53.848;27.498;2023-04-21T07:36:13;1015.6;;;14.8;30.5
54439;BME280;40347;53.848;27.498;2023-04-21T07:41:15;1015.5;;;15;30.8
54439;BME280;40347;53.848;27.498;2023-04-21T07:46:17;1015.5;;;15;29.8
54439;BME280;40347;53.848;27.498;2023-04-21T07:51:03;1015.5;;;15.2;29.3
54439;BME280;40347;53.848;27.498;2023-04-21T07:56:15;1015.5;;;15.4;29.3
54439;BME280;40347;53.848;27.498;2023-04-21T08:01:03;1015.5;;;15.8;28.9
54439;BME280;40347;53.848;27.498;2023-04-21T08:06:03;1015.5;;;15.9;28.3
54439;BME280;40347;53.848;27.498;2023-04-21T08:11:03;1015.4;;;15.9;28.1
54439;BME280;40347;53.848;27.498;2023-04-21T08:16:03;1015.4;;;15.7;28.3
54439;BME280;40347;53.848;27.498;2023-04-21T08:21:15;1015.3;;;15.4;28.2
54439;BME280;40347;53.848;27.498;2023-04-21T08:26:03;1015.3;;;15;28.2
54439;BME280;40347;53.848;27.498;2023-04-21T08:31:13;1015.2;;;15.3;28.5
54439;BME280;40347;53.848;27.498;2023-04-21T08:36:03;1015.2;;;15.6;28.5
54439;BME280;40347;53.848;27.498;2023-04-21T08:41:03;1015.2;;;15.6;28.4
54439;BME280;40347;53.848;27.498;2023-04-21T08:46:05;1015.2;;;15.7;28.5
54439;BME280;40347;53.848;27.498;2023-04-21T08:51:11;1015.2;;;15.7;28.4
54439;BME280;40347;53.848;27.498;2023-04-21T08:56:03;1015.1;;;15.8;28.7
54439;BME280;40347;53.848;27.498;2023-04-21T09:01:15;1015.1;;;15.4;28.6
54439;BME280;40347;53.848;27.498;2023-04-21T09:06:13;1015;;;15.4;29.1
54439;BME280;40347;53.848;27.498;2023-04-21T09:11:03;1015;;;15.5;29
54439;BME280;40347;53.848;27.498;2023-04-21T09:16:04;1014.9;;;15.8;28.9
54439;BME280;40347;53.848;27.498;2023-04-21T09:21:16;1014.8;;;15.9;29
54439;BME280;40347;53.848;27.498;2023-04-21T09:26:03;1014.8;;;16;28.8
54439;BME280;40347;53.848;27.498;2023-04-21T09:31:25;1014.8;;;15.9;28.8
54439;BME280;40347;53.848;27.498;2023-04-21T09:36:17;1014.7;;;15.8;28.8
54439;BME280;40347;53.848;27.498;2023-04-21T09:41:13;1014.7;;;16;29.1
54439;BME280;40347;53.848;27.498;2023-04-21T09:46:03;1014.5;;;16.4;29
54439;BME280;40347;53.848;27.498;2023-04-21T09:51:16;1014.6;;;16.4;28.6
54439;BME280;40347;53.848;27.498;2023-04-21T09:56:13;1014.5;;;16.2;29
54439;BME280;40347;53.848;27.498;2023-04-21T10:01:23;1014.4;;;16.1;29.3
54439;BME280;40347;53.848;27.498;2023-04-21T10:06:35;1014.4;;;16.1;29.8
54439;BME280;40347;53.848;27.498;2023-04-21T10:11:03;1014.4;;;16.4;29.8
54439;BME280;40347;53.848;27.498;2023-04-21T10:16:03;1014.4;;;16.3;30
54439;BME280;40347;53.848;27.498;2023-04-21T10:21:04;1014.2;;;16.3;30.4
54439;BME280;40347;53.848;27.498;2023-04-21T10:26:31;1014.1;;;16.5;30.8
54439;BME280;40347;53.848;27.498;2023-04-21T10:31:17;1014;;;16.5;31.5
54439;BME280;40347;53.848;27.498;2023-04-21T10:36:03;1014;;;16.8;31.5
54439;BME280;40347;53.848;27.498;2023-04-21T10:41:37;1013.9;;;16.7;31.9
54439;BME280;40347;53.848;27.498;2023-04-21T10:46:22;1013.9;;;16.7;32.5
54439;BME280;40347;53.848;27.498;2023-04-21T10:51:03;1013.9;;;16.6;33.3
54439;BME280;40347;53.848;27.498;2023-04-21T10:56:15;1013.8;;;16.6;33.3
54439;BME280;40347;53.848;27.498;2023-04-21T11:01:03;1013.9;;;16.5;33.5
54439;BME280;40347;53.848;27.498;2023-04-21T11:06:12;1013.7;;;16.6;33.4
54439;BME280;40347;53.848;27.498;2023-04-21T11:11:29;1013.7;;;16.8;33.4
54439;BME280;40347;53.848;27.498;2023-04-21T11:16:04;1013.6;;;16.8;33.6
54439;BME280;40347;53.848;27.498;2023-04-21T11:21:07;1013.5;;;16.6;34.4
54439;BME280;40347;53.848;27.498;2023-04-21T11:26:17;1013.5;;;16.6;34.1
54439;BME280;40347;53.848;27.498;2023-04-21T11:31:03;1013.5;;;16.6;33.8
54439;BME280;40347;53.848;27.498;2023-04-21T11:36:15;1013.4;;;16.8;33.8
54439;BME280;40347;53.848;27.498;2023-04-21T11:41:19;1013.3;;;17.1;33.9
54439;BME280;40347;53.848;27.498;2023-04-21T11:46:10;1013.3;;;17.2;33.3
54439;BME280;40347;53.848;27.498;2023-04-21T11:51:17;1013.3;;;16.9;33.4
54439;BME280;40347;53.848;27.498;2023-04-21T11:56:03;1013.1;;;17.2;33.3
54439;BME280;40347;53.848;27.498;2023-04-21T12:01:07;1013.1;;;17.3;33.1
54439;BME280;40347;53.848;27.498;2023-04-21T12:06:03;1013.1;;;17.2;33.2
54439;BME280;40347;53.848;27.498;2023-04-21T12:11:15;1012.9;;;18.1;32.7
54439;BME280;40347;53.848;27.498;2023-04-21T12:16:43;1012.9;;;18.7;31.7
54439;BME280;40347;53.848;27.498;2023-04-21T12:21:03;1012.8;;;18.6;32.2
54439;BME280;40347;53.848;27.498;2023-04-21T12:26:03;1012.8;;;18.4;32.2
54439;BME280;40347;53.848;27.498;2023-04-21T12:31:03;1012.8;;;18.2;32.2
54439;BME280;40347;53.848;27.498;2023-04-21T12:36:25;1012.7;;;18.4;32
54439;BME280;40347;53.848;27.498;2023-04-21T12:41:09;1012.6;;;18.8;31.6
54439;BME280;40347;53.848;27.498;2023-04-21T12:46:29;1012.6;;;19.1;31.4
54439;BME280;40347;53.848;27.498;2023-04-21T12:51:21;1012.6;;;19.1;31.4
54439;BME280;40347;53.848;27.498;2023-04-21T12:56:03;1012.6;;;19.1;31.6
54439;BME280;40347;53.848;27.498;2023-04-21T13:01:27;1012.6;;;18.6;31.8
54439;BME280;40347;53.848;27.498;2023-04-21T13:06:03;1012.5;;;18.3;32.1
54439;BME280;40347;53.848;27.498;2023-04-21T13:11:03;1012.5;;;18.3;32.3
54439;BME280;40347;53.848;27.498;2023-04-21T13:16:03;1012.5;;;18.4;32.3
54439;BME280;40347;53.848;27.498;2023-04-21T13:21:03;1012.4;;;18.5;32.2
54439;BME280;40347;53.848;27.498;2023-04-21T13:26:23;1012.4;;;18.3;32.7
54439;BME280;40347;53.848;27.498;2023-04-21T13:31:15;1012.4;;;18.2;32.6
54439;BME280;40347;53.848;27.498;2023-04-21T13:36:03;1012.2;;;18.4;32.7
54439;BME280;40347;53.848;27.498;2023-04-21T13:41:03;1012.1;;;18.7;32.3
54439;BME280;40347;53.848;27.498;2023-04-21T13:46:21;1012.2;;;18.8;32.1
54439;BME280;40347;53.848;27.498;2023-04-21T13:51:03;1012.2;;;18.6;32.3
54439;BME280;40347;53.848;27.498;2023-04-21T13:56:03;1012.2;;;18.8;32.4
54439;BME280;40347;53.848;27.498;2023-04-21T14:01:03;1012.1;;;18.8;32.2
54439;BME280;40347;53.848;27.498;2023-04-21T14:06:03;1012.1;;;18.8;31.9
54439;BME280;40347;53.848;27.498;2023-04-21T14:11:15;1012.1;;;18.5;32.2
54439;BME280;40347;53.848;27.498;2023-04-21T14:16:13;1012;;;18.1;32.8
54439;BME280;40347;53.848;27.498;2023-04-21T14:21:09;1011.9;;;17.9;33.4
54439;BME280;40347;53.848;27.498;2023-04-21T14:26:23;1011.8;;;17.9;33.4
54439;BME280;40347;53.848;27.498;2023-04-21T14:31:15;1011.9;;;17.5;33.3
54439;BME280;40347;53.848;27.498;2023-04-21T14:36:17;1011.9;;;17.3;33.5
54439;BME280;40347;53.848;27.498;2023-04-21T14:41:11;1011.9;;;17.1;33.8
54439;BME280;40347;53.848;27.498;2023-04-21T14:46:03;1011.8;;;17.2;34.3
54439;BME280;40347;53.848;27.498;2023-04-21T14:51:03;1011.8;;;17.2;34.8
54439;BME280;40347;53.848;27.498;2023-04-21T14:56:21;1011.8;;;17.2;35
54439;BME280;40347;53.848;27.498;2023-04-21T15:01:03;1011.7;;;17.4;34.9
54439;BME280;40347;53.848;27.498;2023-04-21T15:06:11;1011.7;;;17.4;34.8
54439;BME280;40347;53.848;27.498;2023-04-21T15:11:15;1011.7;;;17.4;34.5
54439;BME280;40347;53.848;27.498;2023-04-21T15:16:15;1011.8;;;17.1;34.8
54439;BME280;40347;53.848;27.498;2023-04-21T15:21:15;1011.7;;;17.1;34.9
54439;BME280;40347;53.848;27.498;2023-04-21T15:26:15;1011.6;;;17;35.1
54439;BME280;40347;53.848;27.498;2023-04-21T15:31:15;1011.7;;;16.8;35.5
54439;BME280;40347;53.848;27.498;2023-04-21T15:36:15;1011.7;;;16.5;36.2
54439;BME280;40347;53.848;27.498;2023-04-21T15:41:13;1011.6;;;16.4;36.6
54439;BME280;40347;53.848;27.498;2023-04-21T15:46:19;1011.6;;;16.3;36.6
54439;BME280;40347;53.848;27.498;2023-04-21T15:51:35;1011.5;;;16.5;36.5
54439;BME280;40347;53.848;27.498;2023-04-21T15:56:15;1011.5;;;16.7;36.3
54439;BME280;40347;53.848;27.498;2023-04-21T16:01:09;1011.5;;;16.9;35.5
54439;BME280;40347;53.848;27.498;2023-04-21T16:06:03;1011.5;;;16.8;34.8
54439;BME280;40347;53.848;27.498;2023-04-21T16:11:15;1011.5;;;16.6;35
54439;BME280;40347;53.848;27.498;2023-04-21T16:16:03;1011.5;;;16.4;35.4
54439;BME280;40347;53.848;27.498;2023-04-21T16:21:03;1011.5;;;16.1;36.4
54439;BME280;40347;53.848;27.498;2023-04-21T16:26:15;1011.5;;;15.8;37.7
54439;BME280;40347;53.848;27.498;2023-04-21T16:31:15;1011.5;;;15.8;37.8
54439;BME280;40347;53.848;27.498;2023-04-21T16:36:15;1011.5;;;15.7;38
54439;BME280;40347;53.848;27.498;2023-04-21T16:41:13;1011.5;;;15.6;38.7
54439;BME280;40347;53.848;27.498;2023-04-21T16:46:21;1011.4;;;15.5;39.4
54439;BME280;40347;53.848;27.498;2023-04-21T16:51:09;1011.5;;;15.5;39.5
54439;BME280;40347;53.848;27.498;2023-04-21T16:56:15;1011.5;;;15.5;39.8
54439;BME280;40347;53.848;27.498;2023-04-21T17:01:15;1011.5;;;15.4;40.1
54439;BME280;40347;53.848;27.498;2023-04-21T17:06:03;1011.5;;;15.3;40.6
54439;BME280;40347;53.848;27.498;2023-04-21T17:11:15;1011.5;;;15.2;40.8
54439;BME280;40347;53.848;27.498;2023-04-21T17:16:15;1011.5;;;15.1;41.4
54439;BME280;40347;53.848;27.498;2023-04-21T17:21:15;1011.5;;;14.9;41.7
54439;BME280;40347;53.848;27.498;2023-04-21T17:26:29;1011.5;;;14.8;41.7
54439;BME280;40347;53.848;27.498;2023-04-21T17:31:11;1011.6;;;14.5;42.5
54439;BME280;40347;53.848;27.498;2023-04-21T17:36:15;1011.6;;;14.5;42.5
54439;BME280;40347;53.848;27.498;2023-04-21T17:41:25;1011.6;;;14.5;43
54439;BME280;40347;53.848;27.498;2023-04-21T17:46:04;1011.6;;;14.3;43.3
54439;BME280;40347;53.848;27.498;2023-04-21T17:51:17;1011.6;;;14.3;43.3
54439;BME280;40347;53.848;27.498;2023-04-21T17:56:09;1011.6;;;14.2;43.6
54439;BME280;40347;53.848;27.498;2023-04-21T18:01:09;1011.6;;;14.1;43.7
54439;BME280;40347;53.848;27.498;2023-04-21T18:06:15;1011.6;;;14;44.1
54439;BME280;40347;53.848;27.498;2023-04-21T18:11:03;1011.6;;;14;44.3
54439;BME280;40347;53.848;27.498;2023-04-21T18:16:15;1011.6;;;14;44.5
54439;BME280;40347;53.848;27.498;2023-04-21T18:21:15;1011.6;;;13.9;44.3
54439;BME280;40347;53.848;27.498;2023-04-21T18:26:03;1011.6;;;13.9;44.6
54439;BME280;40347;53.848;27.498;2023-04-21T18:31:03;1011.6;;;13.8;44.5
54439;BME280;40347;53.848;27.498;2023-04-21T18:36:15;1011.6;;;13.8;44.7
54439;BME280;40347;53.848;27.498;2023-04-21T18:41:15;1011.6;;;13.8;44.5
54439;BME280;40347;53.848;27.498;2023-04-21T18:46:31;1011.6;;;13.8;44.4
54439;BME280;40347;53.848;27.498;2023-04-21T18:51:03;1011.6;;;13.7;44.9
54439;BME280;40347;53.848;27.498;2023-04-21T18:56:37;1011.5;;;13.6;45.5
54439;BME280;40347;53.848;27.498;2023-04-21T19:01:37;1011.5;;;13.6;45.3
54439;BME280;40347;53.848;27.498;2023-04-21T19:06:29;1011.5;;;13.6;45.3
54439;BME280;40347;53.848;27.498;2023-04-21T19:11:15;1011.5;;;13.5;45.9
54439;BME280;40347;53.848;27.498;2023-04-21T19:16:03;1011.4;;;13.5;45.8
54439;BME280;40347;53.848;27.498;2023-04-21T19:21:03;1011.4;;;13.4;45.9
54439;BME280;40347;53.848;27.498;2023-04-21T19:26:17;1011.4;;;13.4;46.2
54439;BME280;40347;53.848;27.498;2023-04-21T19:31:03;1011.4;;;13.3;46.1
54439;BME280;40347;53.848;27.498;2023-04-21T19:36:11;1011.3;;;13.2;46.6
54439;BME280;40347;53.848;27.498;2023-04-21T19:41:25;1011.3;;;13.2;46.9
54439;BME280;40347;53.848;27.498;2023-04-21T19:46:15;1011.4;;;13.1;47.3
54439;BME280;40347;53.848;27.498;2023-04-21T19:51:21;1011.4;;;12.9;47.6
54439;BME280;40347;53.848;27.498;2023-04-21T19:56:03;1011.4;;;12.9;48.1
54439;BME280;40347;53.848;27.498;2023-04-21T20:01:03;1011.4;;;12.9;47.8
54439;BME280;40347;53.848;27.498;2023-04-21T20:06:27;1011.4;;;12.9;47.6
54439;BME280;40347;53.848;27.498;2023-04-21T20:11:41;1011.4;;;12.9;47.8
54439;BME280;40347;53.848;27.498;2023-04-21T20:16:03;1011.4;;;12.8;48.3
54439;BME280;40347;53.848;27.498;2023-04-21T20:21:03;1011.4;;;12.7;48.6
54439;BME280;40347;53.848;27.498;2023-04-21T20:26:49;1011.4;;;12.7;48.6
54439;BME280;40347;53.848;27.498;2023-04-21T20:31:15;1011.4;;;12.7;48.5
54439;BME280;40347;53.848;27.498;2023-04-21T20:36:03;1011.4;;;12.7;48.2
54439;BME280;40347;53.848;27.498;2023-04-21T20:41:25;1011.4;;;12.6;48.6
54439;BME280;40347;53.848;27.498;2023-04-21T20:46:03;1011.4;;;12.6;48.9
54439;BME280;40347;53.848;27.498;2023-04-21T20:51:03;1011.4;;;12.5;49
54439;BME280;40347;53.848;27.498;2023-04-21T20:56:25;1011.4;;;12.6;48.7
54439;BME280;40347;53.848;27.498;2023-04-21T21:01:03;1011.3;;;12.6;48.6
54439;BME280;40347;53.848;27.498;2023-04-21T21:06:41;1011.3;;;12.7;48.5
54439;BME280;40347;53.848;27.498;2023-04-21T21:11:23;1011.3;;;12.7;48.6
54439;BME280;40347;53.848;27.498;2023-04-21T21:16:19;1011.3;;;12.7;48.5
54439;BME280;40347;53.848;27.498;2023-04-21T21:21:15;1011.3;;;12.6;48.6
54439;BME280;40347;53.848;27.498;2023-04-21T21:26:25;1011.2;;;12.6;49.3
54439;BME280;40347;53.848;27.498;2023-04-21T21:31:11;1011.2;;;12.4;49.9
54439;BME280;40347;53.848;27.498;2023-04-21T21:36:33;1011.2;;;12.4;49.4
54439;BME280;40347;53.848;27.498;2023-04-21T21:41:03;1011.2;;;12.3;49.9
54439;BME280;40347;53.848;27.498;2023-04-21T21:46:11;1011.2;;;12.2;49.7
54439;BME280;40347;53.848;27.498;2023-04-21T21:51:15;1011.2;;;12.2;49.9
54439;BME280;40347;53.848;27.498;2023-04-21T21:56:04;1011.2;;;12.2;50.2
54439;BME280;40347;53.848;27.498;2023-04-21T22:01:13;1011.2;;;12.3;49.6
54439;BME280;40347;53.848;27.498;2023-04-21T22:06:15;1011.2;;;12.3;49.7
54439;BME280;40347;53.848;27.498;2023-04-21T22:11:09;1011.2;;;12.3;49.7
54439;BME280;40347;53.848;27.498;2023-04-21T22:16:15;1011.2;;;12.2;50.1
54439;BME280;40347;53.848;27.498;2023-04-21T22:21:41;1011.3;;;12.2;50
54439;BME280;40347;53.848;27.498;2023-04-21T22:26:04;1011.2;;;12.2;49.9
54439;BME280;40347;53.848;27.498;2023-04-21T22:31:20;1011.2;;;12.1;50.2
54439;BME280;40347;53.848;27.498;2023-04-21T22:36:03;1011.3;;;12.1;50.3
54439;BME280;40347;53.848;27.498;2023-04-21T22:41:03;1011.2;;;12.1;50.2
54439;BME280;40347;53.848;27.498;2023-04-21T22:46:19;1011.2;;;12.2;50.2
54439;BME280;40347;53.848;27.498;2023-04-21T22:51:04;1011.2;;;12.3;49.8
54439;BME280;40347;53.848;27.498;2023-04-21T22:56:15;1011.2;;;12.4;49.6
54439;BME280;40347;53.848;27.498;2023-04-21T23:01:03;1011.1;;;12.5;49.4
54439;BME280;40347;53.848;27.498;2023-04-21T23:06:15;1011.1;;;12.4;49.4
54439;BME280;40347;53.848;27.498;2023-04-21T23:11:03;1011.1;;;12.4;49.5
54439;BME280;40347;53.848;27.498;2023-04-21T23:16:37;1011.1;;;12.4;49.4
54439;BME280;40347;53.848;27.498;2023-04-21T23:21:15;1011.1;;;12.4;49.4
54439;BME280;40347;53.848;27.498;2023-04-21T23:26:25;1011.1;;;12.4;49.4
54439;BME280;40347;53.848;27.498;2023-04-21T23:31:03;1011.1;;;12.3;49.5
54439;BME280;40347;53.848;27.498;2023-04-21T23:36:04;1011.1;;;12.3;49.7
54439;BME280;40347;53.848;27.498;2023-04-21T23:41:19;1011.1;;;12.3;49.8
54439;BME280;40347;53.848;27.498;2023-04-21T23:46:03;1011.1;;;12.3;49.6
54439;BME280;40347;53.848;27.498;2023-04-21T23:51:03;1011.1;;;12.3;49.8
54439;BME280;40347;53.848;27.498;2023-04-21T23:56:35;1011.1;;;12.2;49.6
